Sunwu, China
Current Conditions -  °F | °C
As of 12:00 AM on Monday 24 Nov 2014 (Local Time) from UHBB Reporting Station
Clear Clear  
Wind Chill:   Ceiling: Unl
Heat Index:   Visibility: 6mi
Dew Point:   Wind: 2mph
Humidity: 92%   Direction: NA
Pressure: 30.12"   Gusts: NA
Location:  49.43°N, 127.35°E
Report Text: UHBB 231600Z VRB01MPS CAVOK M17/M18 Q1020 NOSIG RMK QFE748/099736810350
Loading
Personal Weather Stations






























Interactive Weather Map New forecast layout! Learn more

10-Day Weather Forecast

Advertisements
Track Severe Weather on mobile